sensor_id;sensor_type;location;lat;lon;timestamp;P1;durP1;ratioP1;P2;durP2;ratioP2
58553;SDS011;48119;53.218;6.576;2023-12-14T00:00:15;7.80;;;3.92;;
58553;SDS011;48119;53.218;6.576;2023-12-14T00:02:44;8.43;;;4.20;;
58553;SDS011;48119;53.218;6.576;2023-12-14T00:05:22;8.25;;;3.72;;
58553;SDS011;48119;53.218;6.576;2023-12-14T00:07:48;8.70;;;3.80;;
58553;SDS011;48119;53.218;6.576;2023-12-14T00:10:16;7.03;;;3.60;;
58553;SDS011;48119;53.218;6.576;2023-12-14T00:12:51;5.90;;;3.42;;
58553;SDS011;48119;53.218;6.576;2023-12-14T00:15:20;8.40;;;4.18;;
58553;SDS011;48119;53.218;6.576;2023-12-14T00:17:49;4.53;;;3.10;;
58553;SDS011;48119;53.218;6.576;2023-12-14T00:20:15;5.30;;;3.00;;
58553;SDS011;48119;53.218;6.576;2023-12-14T00:22:40;7.05;;;3.75;;
58553;SDS011;48119;53.218;6.576;2023-12-14T00:25:09;4.53;;;3.00;;
58553;SDS011;48119;53.218;6.576;2023-12-14T00:27:34;4.28;;;2.97;;
58553;SDS011;48119;53.218;6.576;2023-12-14T00:30:05;6.50;;;3.42;;
58553;SDS011;48119;53.218;6.576;2023-12-14T00:32:39;6.50;;;3.20;;
58553;SDS011;48119;53.218;6.576;2023-12-14T00:35:35;6.07;;;3.42;;
58553;SDS011;48119;53.218;6.576;2023-12-14T00:38:08;6.32;;;4.00;;
58553;SDS011;48119;53.218;6.576;2023-12-14T00:40:43;5.15;;;3.70;;
58553;SDS011;48119;53.218;6.576;2023-12-14T00:43:09;5.50;;;3.38;;
58553;SDS011;48119;53.218;6.576;2023-12-14T00:45:37;8.05;;;3.80;;
58553;SDS011;48119;53.218;6.576;2023-12-14T00:48:12;7.03;;;3.50;;
58553;SDS011;48119;53.218;6.576;2023-12-14T00:50:49;7.32;;;3.55;;
58553;SDS011;48119;53.218;6.576;2023-12-14T00:53:24;11.90;;;3.72;;
58553;SDS011;48119;53.218;6.576;2023-12-14T00:55:50;6.47;;;3.55;;
58553;SDS011;48119;53.218;6.576;2023-12-14T00:58:16;5.43;;;3.45;;
58553;SDS011;48119;53.218;6.576;2023-12-14T01:00:46;8.27;;;4.35;;
58553;SDS011;48119;53.218;6.576;2023-12-14T01:03:12;6.82;;;4.03;;
58553;SDS011;48119;53.218;6.576;2023-12-14T01:05:41;6.57;;;4.38;;
58553;SDS011;48119;53.218;6.576;2023-12-14T01:08:12;13.90;;;5.95;;
58553;SDS011;48119;53.218;6.576;2023-12-14T01:10:40;10.43;;;4.97;;
58553;SDS011;48119;53.218;6.576;2023-12-14T01:13:10;9.32;;;4.60;;
58553;SDS011;48119;53.218;6.576;2023-12-14T01:15:38;8.35;;;4.75;;
58553;SDS011;48119;53.218;6.576;2023-12-14T01:18:04;8.65;;;4.82;;
58553;SDS011;48119;53.218;6.576;2023-12-14T01:20:35;9.38;;;5.50;;
58553;SDS011;48119;53.218;6.576;2023-12-14T01:23:11;8.73;;;4.85;;
58553;SDS011;48119;53.218;6.576;2023-12-14T01:25:45;17.50;;;5.00;;
58553;SDS011;48119;53.218;6.576;2023-12-14T01:28:16;9.18;;;4.85;;
58553;SDS011;48119;53.218;6.576;2023-12-14T01:30:47;7.85;;;5.30;;
58553;SDS011;48119;53.218;6.576;2023-12-14T01:33:12;9.25;;;4.75;;
58553;SDS011;48119;53.218;6.576;2023-12-14T01:35:41;9.40;;;5.05;;
58553;SDS011;48119;53.218;6.576;2023-12-14T01:38:09;10.68;;;5.65;;
58553;SDS011;48119;53.218;6.576;2023-12-14T01:40:56;10.30;;;5.90;;
58553;SDS011;48119;53.218;6.576;2023-12-14T01:43:29;11.60;;;6.05;;
58553;SDS011;48119;53.218;6.576;2023-12-14T01:46:00;11.52;;;5.38;;
58553;SDS011;48119;53.218;6.576;2023-12-14T01:48:28;13.52;;;6.32;;
58553;SDS011;48119;53.218;6.576;2023-12-14T01:51:00;11.02;;;5.18;;
58553;SDS011;48119;53.218;6.576;2023-12-14T01:53:26;12.25;;;5.90;;
58553;SDS011;48119;53.218;6.576;2023-12-14T01:55:55;12.02;;;5.80;;
58553;SDS011;48119;53.218;6.576;2023-12-14T01:58:25;9.82;;;5.38;;
58553;SDS011;48119;53.218;6.576;2023-12-14T02:01:16;10.23;;;5.38;;
58553;SDS011;48119;53.218;6.576;2023-12-14T02:03:54;10.07;;;5.35;;
58553;SDS011;48119;53.218;6.576;2023-12-14T02:06:31;10.52;;;5.72;;
58553;SDS011;48119;53.218;6.576;2023-12-14T02:09:09;9.23;;;5.38;;
58553;SDS011;48119;53.218;6.576;2023-12-14T02:11:50;10.20;;;5.72;;
58553;SDS011;48119;53.218;6.576;2023-12-14T02:14:18;9.75;;;5.47;;
58553;SDS011;48119;53.218;6.576;2023-12-14T02:16:49;9.18;;;5.55;;
58553;SDS011;48119;53.218;6.576;2023-12-14T02:19:35;11.27;;;5.13;;
58553;SDS011;48119;53.218;6.576;2023-12-14T02:22:03;11.00;;;5.65;;
58553;SDS011;48119;53.218;6.576;2023-12-14T02:24:29;8.25;;;4.90;;
58553;SDS011;48119;53.218;6.576;2023-12-14T02:27:18;9.50;;;5.65;;
58553;SDS011;48119;53.218;6.576;2023-12-14T02:29:49;8.57;;;4.95;;
58553;SDS011;48119;53.218;6.576;2023-12-14T02:32:25;11.02;;;4.75;;
58553;SDS011;48119;53.218;6.576;2023-12-14T02:34:50;12.60;;;5.00;;
58553;SDS011;48119;53.218;6.576;2023-12-14T02:37:16;7.78;;;4.80;;
58553;SDS011;48119;53.218;6.576;2023-12-14T02:39:44;12.68;;;5.40;;
58553;SDS011;48119;53.218;6.576;2023-12-14T02:42:20;10.82;;;5.25;;
58553;SDS011;48119;53.218;6.576;2023-12-14T02:44:49;10.27;;;5.47;;
58553;SDS011;48119;53.218;6.576;2023-12-14T02:47:35;8.77;;;4.88;;
58553;SDS011;48119;53.218;6.576;2023-12-14T02:50:14;13.30;;;5.50;;
58553;SDS011;48119;53.218;6.576;2023-12-14T02:52:57;8.73;;;4.75;;
58553;SDS011;48119;53.218;6.576;2023-12-14T02:55:23;9.88;;;5.15;;
58553;SDS011;48119;53.218;6.576;2023-12-14T02:57:52;11.98;;;5.10;;
58553;SDS011;48119;53.218;6.576;2023-12-14T03:00:45;8.63;;;5.50;;
58553;SDS011;48119;53.218;6.576;2023-12-14T03:03:20;8.48;;;4.80;;
58553;SDS011;48119;53.218;6.576;2023-12-14T03:05:58;11.10;;;4.93;;
58553;SDS011;48119;53.218;6.576;2023-12-14T03:08:24;16.20;;;5.45;;
58553;SDS011;48119;53.218;6.576;2023-12-14T03:10:55;9.02;;;4.75;;
58553;SDS011;48119;53.218;6.576;2023-12-14T03:13:26;12.50;;;5.65;;
58553;SDS011;48119;53.218;6.576;2023-12-14T03:15:53;12.40;;;6.82;;
58553;SDS011;48119;53.218;6.576;2023-12-14T03:18:19;9.52;;;5.00;;
58553;SDS011;48119;53.218;6.576;2023-12-14T03:20:49;11.98;;;6.15;;
58553;SDS011;48119;53.218;6.576;2023-12-14T03:23:33;10.10;;;4.57;;
58553;SDS011;48119;53.218;6.576;2023-12-14T03:26:16;16.00;;;5.20;;
58553;SDS011;48119;53.218;6.576;2023-12-14T03:28:44;10.63;;;5.07;;
58553;SDS011;48119;53.218;6.576;2023-12-14T03:31:22;11.23;;;5.18;;
58553;SDS011;48119;53.218;6.576;2023-12-14T03:33:53;10.95;;;4.70;;
58553;SDS011;48119;53.218;6.576;2023-12-14T03:36:21;10.95;;;5.18;;
58553;SDS011;48119;53.218;6.576;2023-12-14T03:38:51;9.60;;;4.82;;
58553;SDS011;48119;53.218;6.576;2023-12-14T03:41:19;12.50;;;5.45;;
58553;SDS011;48119;53.218;6.576;2023-12-14T03:43:56;11.15;;;5.32;;
58553;SDS011;48119;53.218;6.576;2023-12-14T03:46:27;10.13;;;5.25;;
58553;SDS011;48119;53.218;6.576;2023-12-14T03:49:02;15.90;;;6.07;;
58553;SDS011;48119;53.218;6.576;2023-12-14T03:51:30;12.38;;;6.13;;
58553;SDS011;48119;53.218;6.576;2023-12-14T03:53:58;10.52;;;5.68;;
58553;SDS011;48119;53.218;6.576;2023-12-14T03:56:27;11.48;;;6.82;;
58553;SDS011;48119;53.218;6.576;2023-12-14T03:59:03;15.85;;;5.45;;
58553;SDS011;48119;53.218;6.576;2023-12-14T04:01:31;13.48;;;6.93;;
58553;SDS011;48119;53.218;6.576;2023-12-14T04:04:09;8.63;;;5.95;;
58553;SDS011;48119;53.218;6.576;2023-12-14T04:06:35;11.80;;;6.82;;
58553;SDS011;48119;53.218;6.576;2023-12-14T04:09:05;11.73;;;6.25;;
58553;SDS011;48119;53.218;6.576;2023-12-14T04:11:33;10.80;;;6.85;;
58553;SDS011;48119;53.218;6.576;2023-12-14T04:14:01;20.00;;;6.82;;
58553;SDS011;48119;53.218;6.576;2023-12-14T04:16:34;10.10;;;5.72;;
58553;SDS011;48119;53.218;6.576;2023-12-14T04:19:00;15.25;;;6.85;;
58553;SDS011;48119;53.218;6.576;2023-12-14T04:21:29;10.57;;;6.05;;
58553;SDS011;48119;53.218;6.576;2023-12-14T04:23:59;9.85;;;6.50;;
58553;SDS011;48119;53.218;6.576;2023-12-14T04:26:28;12.25;;;6.20;;
58553;SDS011;48119;53.218;6.576;2023-12-14T04:28:54;11.68;;;5.78;;
58553;SDS011;48119;53.218;6.576;2023-12-14T04:31:22;8.90;;;6.15;;
58553;SDS011;48119;53.218;6.576;2023-12-14T04:33:52;17.35;;;6.38;;
58553;SDS011;48119;53.218;6.576;2023-12-14T04:36:30;9.23;;;5.70;;
58553;SDS011;48119;53.218;6.576;2023-12-14T04:39:09;10.05;;;5.75;;
58553;SDS011;48119;53.218;6.576;2023-12-14T04:41:40;13.18;;;6.10;;
58553;SDS011;48119;53.218;6.576;2023-12-14T04:44:08;10.32;;;6.75;;
58553;SDS011;48119;53.218;6.576;2023-12-14T04:46:37;9.68;;;6.07;;
58553;SDS011;48119;53.218;6.576;2023-12-14T04:49:05;12.60;;;6.60;;
58553;SDS011;48119;53.218;6.576;2023-12-14T04:51:31;13.13;;;6.97;;
58553;SDS011;48119;53.218;6.576;2023-12-14T04:54:04;11.98;;;5.90;;
58553;SDS011;48119;53.218;6.576;2023-12-14T04:56:32;12.13;;;6.90;;
58553;SDS011;48119;53.218;6.576;2023-12-14T04:59:01;10.93;;;6.68;;
58553;SDS011;48119;53.218;6.576;2023-12-14T05:01:27;12.48;;;6.10;;
58553;SDS011;48119;53.218;6.576;2023-12-14T05:03:56;14.85;;;6.40;;
58553;SDS011;48119;53.218;6.576;2023-12-14T05:06:36;11.95;;;6.60;;
58553;SDS011;48119;53.218;6.576;2023-12-14T05:11:36;17.35;;;7.95;;
58553;SDS011;48119;53.218;6.576;2023-12-14T05:14:08;11.68;;;6.97;;
58553;SDS011;48119;53.218;6.576;2023-12-14T05:19:33;11.75;;;6.70;;
58553;SDS011;48119;53.218;6.576;2023-12-14T05:21:59;19.65;;;6.75;;
58553;SDS011;48119;53.218;6.576;2023-12-14T05:24:34;11.82;;;6.72;;
58553;SDS011;48119;53.218;6.576;2023-12-14T05:29:53;9.63;;;6.53;;
58553;SDS011;48119;53.218;6.576;2023-12-14T05:32:39;15.52;;;7.00;;
58553;SDS011;48119;53.218;6.576;2023-12-14T05:35:17;14.23;;;7.47;;
58553;SDS011;48119;53.218;6.576;2023-12-14T05:37:48;12.63;;;6.30;;
58553;SDS011;48119;53.218;6.576;2023-12-14T05:40:31;13.23;;;7.38;;
58553;SDS011;48119;53.218;6.576;2023-12-14T05:43:02;14.60;;;6.88;;
58553;SDS011;48119;53.218;6.576;2023-12-14T05:45:32;8.65;;;5.95;;
58553;SDS011;48119;53.218;6.576;2023-12-14T05:48:08;14.43;;;6.78;;
58553;SDS011;48119;53.218;6.576;2023-12-14T05:50:36;13.13;;;6.78;;
58553;SDS011;48119;53.218;6.576;2023-12-14T05:53:07;12.45;;;6.50;;
58553;SDS011;48119;53.218;6.576;2023-12-14T05:55:35;16.00;;;6.63;;
58553;SDS011;48119;53.218;6.576;2023-12-14T05:58:03;18.15;;;7.32;;
58553;SDS011;48119;53.218;6.576;2023-12-14T06:00:29;11.68;;;6.40;;
58553;SDS011;48119;53.218;6.576;2023-12-14T06:03:02;13.50;;;6.72;;
58553;SDS011;48119;53.218;6.576;2023-12-14T06:05:30;10.90;;;6.85;;
58553;SDS011;48119;53.218;6.576;2023-12-14T06:08:14;13.43;;;7.25;;
58553;SDS011;48119;53.218;6.576;2023-12-14T06:10:46;13.70;;;7.18;;
58553;SDS011;48119;53.218;6.576;2023-12-14T06:13:11;17.83;;;6.78;;
58553;SDS011;48119;53.218;6.576;2023-12-14T06:15:48;13.00;;;6.82;;
58553;SDS011;48119;53.218;6.576;2023-12-14T06:18:17;14.32;;;7.32;;
58553;SDS011;48119;53.218;6.576;2023-12-14T06:20:54;12.15;;;7.35;;
58553;SDS011;48119;53.218;6.576;2023-12-14T06:23:22;13.07;;;6.85;;
58553;SDS011;48119;53.218;6.576;2023-12-14T06:25:51;14.23;;;7.28;;
58553;SDS011;48119;53.218;6.576;2023-12-14T06:28:24;14.85;;;6.95;;
58553;SDS011;48119;53.218;6.576;2023-12-14T06:30:53;14.23;;;7.78;;
58553;SDS011;48119;53.218;6.576;2023-12-14T06:33:30;12.27;;;6.93;;
58553;SDS011;48119;53.218;6.576;2023-12-14T06:36:04;11.82;;;6.72;;
58553;SDS011;48119;53.218;6.576;2023-12-14T06:38:31;22.35;;;7.43;;
58553;SDS011;48119;53.218;6.576;2023-12-14T06:41:03;12.98;;;6.78;;
58553;SDS011;48119;53.218;6.576;2023-12-14T06:43:31;15.27;;;7.80;;
58553;SDS011;48119;53.218;6.576;2023-12-14T06:46:00;16.40;;;7.38;;
58553;SDS011;48119;53.218;6.576;2023-12-14T06:48:28;14.43;;;7.90;;
58553;SDS011;48119;53.218;6.576;2023-12-14T06:51:00;13.60;;;7.47;;
58553;SDS011;48119;53.218;6.576;2023-12-14T06:53:26;15.02;;;8.48;;
58553;SDS011;48119;53.218;6.576;2023-12-14T06:55:57;14.20;;;7.07;;
58553;SDS011;48119;53.218;6.576;2023-12-14T06:58:23;12.25;;;6.93;;
58553;SDS011;48119;53.218;6.576;2023-12-14T07:00:52;16.23;;;7.28;;
58553;SDS011;48119;53.218;6.576;2023-12-14T07:03:20;16.15;;;7.72;;
58553;SDS011;48119;53.218;6.576;2023-12-14T07:05:49;11.73;;;6.82;;
58553;SDS011;48119;53.218;6.576;2023-12-14T07:08:15;17.33;;;6.68;;
58553;SDS011;48119;53.218;6.576;2023-12-14T07:10:43;13.38;;;7.13;;
58553;SDS011;48119;53.218;6.576;2023-12-14T07:13:09;12.63;;;6.93;;
58553;SDS011;48119;53.218;6.576;2023-12-14T07:15:38;12.57;;;7.32;;
58553;SDS011;48119;53.218;6.576;2023-12-14T07:18:04;12.90;;;8.15;;
58553;SDS011;48119;53.218;6.576;2023-12-14T07:20:29;13.13;;;7.13;;
58553;SDS011;48119;53.218;6.576;2023-12-14T07:22:55;15.25;;;7.38;;
58553;SDS011;48119;53.218;6.576;2023-12-14T07:25:24;13.43;;;7.22;;
58553;SDS011;48119;53.218;6.576;2023-12-14T07:27:49;15.93;;;7.82;;
58553;SDS011;48119;53.218;6.576;2023-12-14T07:30:18;16.48;;;7.55;;
58553;SDS011;48119;53.218;6.576;2023-12-14T07:32:52;14.32;;;8.02;;
58553;SDS011;48119;53.218;6.576;2023-12-14T07:35:23;16.45;;;8.60;;
58553;SDS011;48119;53.218;6.576;2023-12-14T07:37:49;12.80;;;6.82;;
58553;SDS011;48119;53.218;6.576;2023-12-14T07:40:17;15.02;;;8.00;;
58553;SDS011;48119;53.218;6.576;2023-12-14T07:42:50;16.13;;;7.83;;
58553;SDS011;48119;53.218;6.576;2023-12-14T07:45:16;19.80;;;8.88;;
58553;SDS011;48119;53.218;6.576;2023-12-14T07:47:42;15.98;;;8.50;;
58553;SDS011;48119;53.218;6.576;2023-12-14T07:50:11;18.63;;;8.13;;
58553;SDS011;48119;53.218;6.576;2023-12-14T07:52:37;14.45;;;7.78;;
58553;SDS011;48119;53.218;6.576;2023-12-14T07:55:06;15.75;;;9.02;;
58553;SDS011;48119;53.218;6.576;2023-12-14T07:57:35;14.85;;;7.53;;
58553;SDS011;48119;53.218;6.576;2023-12-14T08:00:00;14.15;;;7.40;;
58553;SDS011;48119;53.218;6.576;2023-12-14T08:02:29;16.80;;;8.73;;
58553;SDS011;48119;53.218;6.576;2023-12-14T08:04:59;18.08;;;7.63;;
58553;SDS011;48119;53.218;6.576;2023-12-14T08:07:38;15.90;;;7.80;;
58553;SDS011;48119;53.218;6.576;2023-12-14T08:10:04;16.10;;;9.38;;
58553;SDS011;48119;53.218;6.576;2023-12-14T08:12:41;14.10;;;8.30;;
58553;SDS011;48119;53.218;6.576;2023-12-14T08:15:07;14.15;;;8.07;;
58553;SDS011;48119;53.218;6.576;2023-12-14T08:17:33;15.13;;;8.98;;
58553;SDS011;48119;53.218;6.576;2023-12-14T08:20:08;15.73;;;8.77;;
58553;SDS011;48119;53.218;6.576;2023-12-14T08:22:38;14.80;;;8.15;;
58553;SDS011;48119;53.218;6.576;2023-12-14T08:25:14;18.92;;;9.80;;
58553;SDS011;48119;53.218;6.576;2023-12-14T08:27:40;17.73;;;9.13;;
58553;SDS011;48119;53.218;6.576;2023-12-14T08:30:07;14.90;;;8.80;;
58553;SDS011;48119;53.218;6.576;2023-12-14T08:32:34;17.05;;;9.60;;
58553;SDS011;48119;53.218;6.576;2023-12-14T08:35:08;16.85;;;9.68;;
58553;SDS011;48119;53.218;6.576;2023-12-14T08:37:39;15.63;;;9.70;;
58553;SDS011;48119;53.218;6.576;2023-12-14T08:40:07;14.20;;;8.40;;
58553;SDS011;48119;53.218;6.576;2023-12-14T08:42:33;20.38;;;11.57;;
58553;SDS011;48119;53.218;6.576;2023-12-14T08:44:59;15.38;;;10.15;;
58553;SDS011;48119;53.218;6.576;2023-12-14T08:47:25;17.95;;;10.68;;
58553;SDS011;48119;53.218;6.576;2023-12-14T08:49:50;17.38;;;9.80;;
58553;SDS011;48119;53.218;6.576;2023-12-14T08:52:16;21.92;;;9.93;;
58553;SDS011;48119;53.218;6.576;2023-12-14T08:54:43;15.38;;;8.85;;
58553;SDS011;48119;53.218;6.576;2023-12-14T08:57:09;14.82;;;8.98;;
58553;SDS011;48119;53.218;6.576;2023-12-14T08:59:35;24.48;;;10.95;;
58553;SDS011;48119;53.218;6.576;2023-12-14T09:02:01;17.45;;;9.57;;
58553;SDS011;48119;53.218;6.576;2023-12-14T09:04:29;14.80;;;8.80;;
58553;SDS011;48119;53.218;6.576;2023-12-14T09:06:55;12.57;;;8.50;;
58553;SDS011;48119;53.218;6.576;2023-12-14T09:09:20;16.58;;;9.55;;
58553;SDS011;48119;53.218;6.576;2023-12-14T09:11:46;18.33;;;9.43;;
58553;SDS011;48119;53.218;6.576;2023-12-14T09:14:12;15.13;;;9.02;;
58553;SDS011;48119;53.218;6.576;2023-12-14T09:16:38;18.30;;;9.55;;
58553;SDS011;48119;53.218;6.576;2023-12-14T09:19:03;19.40;;;9.93;;
58553;SDS011;48119;53.218;6.576;2023-12-14T09:21:29;17.42;;;9.68;;
58553;SDS011;48119;53.218;6.576;2023-12-14T09:23:55;15.77;;;9.85;;
58553;SDS011;48119;53.218;6.576;2023-12-14T09:26:21;14.35;;;7.82;;
58553;SDS011;48119;53.218;6.576;2023-12-14T09:28:46;16.15;;;8.07;;
58553;SDS011;48119;53.218;6.576;2023-12-14T09:31:12;22.02;;;9.90;;
58553;SDS011;48119;53.218;6.576;2023-12-14T09:33:38;14.30;;;8.57;;
58553;SDS011;48119;53.218;6.576;2023-12-14T09:36:04;14.15;;;7.97;;
58553;SDS011;48119;53.218;6.576;2023-12-14T09:38:30;16.15;;;8.50;;
58553;SDS011;48119;53.218;6.576;2023-12-14T09:40:56;17.33;;;8.93;;
58553;SDS011;48119;53.218;6.576;2023-12-14T09:43:22;15.23;;;8.30;;
58553;SDS011;48119;53.218;6.576;2023-12-14T09:45:48;14.25;;;8.55;;
58553;SDS011;48119;53.218;6.576;2023-12-14T09:48:15;16.98;;;8.32;;
58553;SDS011;48119;53.218;6.576;2023-12-14T09:50:41;13.20;;;9.05;;
58553;SDS011;48119;53.218;6.576;2023-12-14T09:53:07;16.88;;;10.00;;
58553;SDS011;48119;53.218;6.576;2023-12-14T09:55:33;15.50;;;8.75;;
58553;SDS011;48119;53.218;6.576;2023-12-14T09:57:59;14.35;;;8.70;;
58553;SDS011;48119;53.218;6.576;2023-12-14T10:00:37;14.38;;;8.80;;
58553;SDS011;48119;53.218;6.576;2023-12-14T10:03:21;18.90;;;9.63;;
58553;SDS011;48119;53.218;6.576;2023-12-14T10:05:51;14.90;;;9.15;;
58553;SDS011;48119;53.218;6.576;2023-12-14T10:08:21;19.40;;;9.77;;
58553;SDS011;48119;53.218;6.576;2023-12-14T10:10:48;17.77;;;9.13;;
58553;SDS011;48119;53.218;6.576;2023-12-14T10:13:17;16.05;;;8.95;;
58553;SDS011;48119;53.218;6.576;2023-12-14T10:15:46;17.75;;;9.48;;
58553;SDS011;48119;53.218;6.576;2023-12-14T10:18:23;14.63;;;8.40;;
58553;SDS011;48119;53.218;6.576;2023-12-14T10:20:51;16.95;;;9.52;;
58553;SDS011;48119;53.218;6.576;2023-12-14T10:23:26;15.63;;;9.45;;
58553;SDS011;48119;53.218;6.576;2023-12-14T10:25:54;18.90;;;11.93;;
58553;SDS011;48119;53.218;6.576;2023-12-14T10:28:25;19.77;;;10.80;;
58553;SDS011;48119;53.218;6.576;2023-12-14T10:30:53;15.98;;;9.57;;
58553;SDS011;48119;53.218;6.576;2023-12-14T10:33:21;14.68;;;9.63;;
58553;SDS011;48119;53.218;6.576;2023-12-14T10:35:51;20.90;;;10.80;;
58553;SDS011;48119;53.218;6.576;2023-12-14T10:38:21;16.90;;;10.15;;
58553;SDS011;48119;53.218;6.576;2023-12-14T10:40:50;18.45;;;9.60;;
58553;SDS011;48119;53.218;6.576;2023-12-14T10:43:23;17.73;;;10.98;;
58553;SDS011;48119;53.218;6.576;2023-12-14T10:45:50;18.73;;;11.00;;
58553;SDS011;48119;53.218;6.576;2023-12-14T10:48:19;18.73;;;10.45;;
58553;SDS011;48119;53.218;6.576;2023-12-14T10:50:48;21.25;;;10.52;;
58553;SDS011;48119;53.218;6.576;2023-12-14T10:53:19;16.02;;;10.43;;
58553;SDS011;48119;53.218;6.576;2023-12-14T10:55:47;18.50;;;10.00;;
58553;SDS011;48119;53.218;6.576;2023-12-14T10:58:16;18.25;;;10.10;;
58553;SDS011;48119;53.218;6.576;2023-12-14T11:00:58;19.55;;;10.13;;
58553;SDS011;48119;53.218;6.576;2023-12-14T11:03:26;16.52;;;9.35;;
58553;SDS011;48119;53.218;6.576;2023-12-14T11:06:00;17.75;;;10.30;;
58553;SDS011;48119;53.218;6.576;2023-12-14T11:08:26;24.20;;;11.27;;
58553;SDS011;48119;53.218;6.576;2023-12-14T11:10:54;20.02;;;10.57;;
58553;SDS011;48119;53.218;6.576;2023-12-14T11:13:37;17.77;;;10.55;;
58553;SDS011;48119;53.218;6.576;2023-12-14T11:16:05;17.65;;;9.82;;
58553;SDS011;48119;53.218;6.576;2023-12-14T11:18:31;15.63;;;9.63;;
58553;SDS011;48119;53.218;6.576;2023-12-14T11:20:58;17.80;;;10.30;;
58553;SDS011;48119;53.218;6.576;2023-12-14T11:26:03;16.23;;;9.85;;
58553;SDS011;48119;53.218;6.576;2023-12-14T11:28:36;19.63;;;9.45;;
58553;SDS011;48119;53.218;6.576;2023-12-14T11:31:11;15.57;;;8.95;;
58553;SDS011;48119;53.218;6.576;2023-12-14T11:33:37;17.42;;;9.35;;
58553;SDS011;48119;53.218;6.576;2023-12-14T11:36:04;15.20;;;8.57;;
58553;SDS011;48119;53.218;6.576;2023-12-14T11:38:30;15.38;;;9.35;;
58553;SDS011;48119;53.218;6.576;2023-12-14T11:40:57;18.70;;;8.10;;
58553;SDS011;48119;53.218;6.576;2023-12-14T11:43:24;12.55;;;8.90;;
58553;SDS011;48119;53.218;6.576;2023-12-14T11:45:51;19.38;;;9.98;;
58553;SDS011;48119;53.218;6.576;2023-12-14T11:48:17;15.73;;;9.10;;
58553;SDS011;48119;53.218;6.576;2023-12-14T11:50:45;14.82;;;9.68;;
58553;SDS011;48119;53.218;6.576;2023-12-14T11:53:12;12.55;;;8.07;;
58553;SDS011;48119;53.218;6.576;2023-12-14T11:55:41;14.57;;;8.20;;
58553;SDS011;48119;53.218;6.576;2023-12-14T11:58:08;13.80;;;8.07;;
58553;SDS011;48119;53.218;6.576;2023-12-14T12:00:36;14.52;;;7.90;;
58553;SDS011;48119;53.218;6.576;2023-12-14T12:03:11;19.55;;;8.77;;
58553;SDS011;48119;53.218;6.576;2023-12-14T12:08:13;13.25;;;8.55;;
58553;SDS011;48119;53.218;6.576;2023-12-14T12:10:42;17.00;;;9.50;;
58553;SDS011;48119;53.218;6.576;2023-12-14T12:13:19;15.43;;;8.80;;
58553;SDS011;48119;53.218;6.576;2023-12-14T12:15:45;17.90;;;8.25;;
58553;SDS011;48119;53.218;6.576;2023-12-14T12:18:12;16.08;;;8.25;;
58553;SDS011;48119;53.218;6.576;2023-12-14T12:20:39;20.77;;;7.80;;
58553;SDS011;48119;53.218;6.576;2023-12-14T12:23:05;14.63;;;8.23;;
58553;SDS011;48119;53.218;6.576;2023-12-14T12:25:32;9.93;;;6.72;;
58553;SDS011;48119;53.218;6.576;2023-12-14T12:27:58;11.90;;;7.47;;
58553;SDS011;48119;53.218;6.576;2023-12-14T12:30:25;13.02;;;8.13;;
58553;SDS011;48119;53.218;6.576;2023-12-14T12:32:51;13.95;;;7.25;;
58553;SDS011;48119;53.218;6.576;2023-12-14T12:35:20;13.52;;;7.85;;
58553;SDS011;48119;53.218;6.576;2023-12-14T12:37:47;14.50;;;7.80;;
58553;SDS011;48119;53.218;6.576;2023-12-14T12:40:18;15.27;;;8.70;;
58553;SDS011;48119;53.218;6.576;2023-12-14T12:42:46;13.43;;;8.02;;
58553;SDS011;48119;53.218;6.576;2023-12-14T12:45:13;17.23;;;8.98;;
58553;SDS011;48119;53.218;6.576;2023-12-14T12:47:41;12.50;;;9.20;;
58553;SDS011;48119;53.218;6.576;2023-12-14T12:50:07;15.65;;;8.98;;
58553;SDS011;48119;53.218;6.576;2023-12-14T12:52:33;15.48;;;8.82;;
58553;SDS011;48119;53.218;6.576;2023-12-14T12:54:59;15.63;;;8.73;;
58553;SDS011;48119;53.218;6.576;2023-12-14T12:57:25;15.73;;;8.95;;
58553;SDS011;48119;53.218;6.576;2023-12-14T12:59:51;14.73;;;8.23;;
58553;SDS011;48119;53.218;6.576;2023-12-14T13:02:17;14.25;;;8.73;;
58553;SDS011;48119;53.218;6.576;2023-12-14T13:04:43;12.98;;;8.48;;
58553;SDS011;48119;53.218;6.576;2023-12-14T13:07:08;17.58;;;8.00;;
58553;SDS011;48119;53.218;6.576;2023-12-14T13:09:34;16.27;;;8.48;;
58553;SDS011;48119;53.218;6.576;2023-12-14T13:12:00;13.65;;;8.40;;
58553;SDS011;48119;53.218;6.576;2023-12-14T13:14:26;16.70;;;9.05;;
58553;SDS011;48119;53.218;6.576;2023-12-14T13:16:51;12.95;;;7.88;;
58553;SDS011;48119;53.218;6.576;2023-12-14T13:19:17;16.17;;;8.98;;
58553;SDS011;48119;53.218;6.576;2023-12-14T13:21:43;13.25;;;7.53;;
58553;SDS011;48119;53.218;6.576;2023-12-14T13:24:09;12.00;;;8.23;;
58553;SDS011;48119;53.218;6.576;2023-12-14T13:26:34;14.88;;;7.68;;
58553;SDS011;48119;53.218;6.576;2023-12-14T13:29:01;13.70;;;8.02;;
58553;SDS011;48119;53.218;6.576;2023-12-14T13:31:27;10.48;;;7.00;;
58553;SDS011;48119;53.218;6.576;2023-12-14T13:33:53;16.30;;;8.20;;
58553;SDS011;48119;53.218;6.576;2023-12-14T13:36:18;15.30;;;8.70;;
58553;SDS011;48119;53.218;6.576;2023-12-14T13:38:44;19.15;;;8.38;;
58553;SDS011;48119;53.218;6.576;2023-12-14T13:41:11;13.88;;;7.57;;
58553;SDS011;48119;53.218;6.576;2023-12-14T13:43:36;10.93;;;6.32;;
58553;SDS011;48119;53.218;6.576;2023-12-14T13:46:02;11.00;;;7.13;;
58553;SDS011;48119;53.218;6.576;2023-12-14T13:48:28;11.80;;;7.32;;
58553;SDS011;48119;53.218;6.576;2023-12-14T13:50:54;16.08;;;7.85;;
58553;SDS011;48119;53.218;6.576;2023-12-14T13:53:21;10.63;;;7.43;;
58553;SDS011;48119;53.218;6.576;2023-12-14T13:55:47;13.82;;;7.80;;
58553;SDS011;48119;53.218;6.576;2023-12-14T13:58:14;12.18;;;7.78;;
58553;SDS011;48119;53.218;6.576;2023-12-14T14:00:40;15.60;;;7.43;;
58553;SDS011;48119;53.218;6.576;2023-12-14T14:03:05;10.18;;;7.20;;
58553;SDS011;48119;53.218;6.576;2023-12-14T14:05:32;14.32;;;7.57;;
58553;SDS011;48119;53.218;6.576;2023-12-14T14:07:58;13.98;;;7.10;;
58553;SDS011;48119;53.218;6.576;2023-12-14T14:10:23;15.23;;;7.88;;
58553;SDS011;48119;53.218;6.576;2023-12-14T14:12:50;14.73;;;8.27;;
58553;SDS011;48119;53.218;6.576;2023-12-14T14:15:16;15.18;;;8.27;;
58553;SDS011;48119;53.218;6.576;2023-12-14T14:17:43;15.43;;;8.35;;
58553;SDS011;48119;53.218;6.576;2023-12-14T14:20:09;11.98;;;7.50;;
58553;SDS011;48119;53.218;6.576;2023-12-14T14:22:36;18.08;;;8.30;;
58553;SDS011;48119;53.218;6.576;2023-12-14T14:25:04;14.85;;;8.07;;
58553;SDS011;48119;53.218;6.576;2023-12-14T14:27:31;17.10;;;8.00;;
58553;SDS011;48119;53.218;6.576;2023-12-14T14:30:00;13.80;;;8.18;;
58553;SDS011;48119;53.218;6.576;2023-12-14T14:32:26;13.15;;;7.80;;
58553;SDS011;48119;53.218;6.576;2023-12-14T14:34:52;13.65;;;7.82;;
58553;SDS011;48119;53.218;6.576;2023-12-14T14:37:20;10.65;;;7.13;;
58553;SDS011;48119;53.218;6.576;2023-12-14T14:39:46;14.93;;;7.78;;
58553;SDS011;48119;53.218;6.576;2023-12-14T14:42:13;13.63;;;8.50;;
58553;SDS011;48119;53.218;6.576;2023-12-14T14:44:39;18.17;;;8.10;;
58553;SDS011;48119;53.218;6.576;2023-12-14T14:47:05;11.85;;;7.20;;
58553;SDS011;48119;53.218;6.576;2023-12-14T14:49:34;12.73;;;7.80;;
58553;SDS011;48119;53.218;6.576;2023-12-14T14:52:00;12.18;;;7.53;;
58553;SDS011;48119;53.218;6.576;2023-12-14T14:54:25;11.18;;;7.00;;
58553;SDS011;48119;53.218;6.576;2023-12-14T14:56:51;15.32;;;7.78;;
58553;SDS011;48119;53.218;6.576;2023-12-14T14:59:17;11.43;;;6.93;;
58553;SDS011;48119;53.218;6.576;2023-12-14T15:01:43;11.35;;;7.72;;